Time;durP1;ratioP1;P1;durP2;ratioP2;P2;SDS_P1;SDS_P2;PMS_P1;PMS_P2;Temp;Humidity;BMP_temperature;BMP_pressure;BME280_temperature;BME280_humidity;BME280_pressure;Samples;Min_cycle;Max_cycle;Signal;HPM_P1;HPM_P2
2022/06/25 00:00:27;;;;;;;5.38;4.75;;;18.60;78.70;;;;;;5076459;28;20059;-71
2022/06/25 00:02:52;;;;;;;4.97;4.45;;;18.50;79.50;;;;;;5076532;28;20051;-71
2022/06/25 00:05:27;;;;;;;5.85;5.28;;;18.50;80.70;;;;;;5076238;28;20110;-71
2022/06/25 00:07:53;;;;;;;5.20;4.60;;;18.50;80.60;;;;;;5058483;28;20107;-70
2022/06/25 00:10:19;;;;;;;7.82;5.28;;;18.40;82.60;;;;;;5076458;28;20021;-71
2022/06/25 00:12:44;;;;;;;6.57;4.45;;;18.30;82.00;;;;;;5076096;28;20028;-71
2022/06/25 00:15:10;;;;;;;4.80;4.40;;;18.30;82.50;;;;;;5062227;28;20103;-71
2022/06/25 00:17:36;;;;;;;6.18;4.63;;;18.20;83.30;;;;;;5056213;28;20099;-73
2022/06/25 00:20:04;;;;;;;7.60;4.45;;;18.20;83.20;;;;;;5056166;28;20471;-72
2022/06/25 00:22:29;;;;;;;6.40;4.68;;;18.20;83.50;;;;;;5038202;28;20112;-71
2022/06/25 00:24:55;;;;;;;7.07;4.55;;;18.20;83.10;;;;;;5038050;28;20482;-71
2022/06/25 00:27:21;;;;;;;6.28;4.35;;;18.20;84.50;;;;;;5038072;28;20418;-72
2022/06/25 00:29:47;;;;;;;5.20;4.70;;;18.10;85.40;;;;;;5055983;28;20060;-71
2022/06/25 00:32:12;;;;;;;5.18;4.68;;;18.10;84.80;;;;;;5055863;28;20021;-72
2022/06/25 00:34:39;;;;;;;5.85;4.60;;;18.10;85.80;;;;;;5055815;28;20060;-71
2022/06/25 00:37:06;;;;;;;10.05;5.85;;;18.10;86.30;;;;;;5055862;28;20029;-72
2022/06/25 00:39:32;;;;;;;7.05;4.53;;;18.00;86.60;;;;;;5055769;28;20127;-71
2022/06/25 00:41:57;;;;;;;6.97;4.70;;;18.00;88.40;;;;;;5055766;28;20040;-71
2022/06/25 00:44:23;;;;;;;5.28;4.80;;;17.90;89.00;;;;;;5055585;28;20047;-72
2022/06/25 00:46:49;;;;;;;5.97;4.65;;;17.80;89.80;;;;;;5055667;28;20032;-72
2022/06/25 00:49:15;;;;;;;6.32;4.60;;;17.70;91.30;;;;;;5055655;28;20060;-71
2022/06/25 00:51:43;;;;;;;5.38;4.50;;;17.70;92.10;;;;;;5037633;28;20021;-71
2022/06/25 00:54:10;;;;;;;9.85;5.28;;;17.60;92.30;;;;;;5055492;28;20033;-72
2022/06/25 00:56:39;;;;;;;6.15;4.10;;;17.60;92.50;;;;;;5065143;28;20025;-71
2022/06/25 00:59:06;;;;;;;6.32;4.35;;;17.60;92.80;;;;;;5074325;28;20021;-71
2022/06/25 01:01:35;;;;;;;6.88;5.25;;;17.50;94.10;;;;;;5075367;28;20013;-71
2022/06/25 01:04:01;;;;;;;7.13;5.10;;;17.40;95.10;;;;;;5057471;28;20025;-74
2022/06/25 01:06:28;;;;;;;5.50;3.85;;;17.40;94.10;;;;;;5075210;28;20049;-73
2022/06/25 01:08:55;;;;;;;8.63;4.68;;;17.40;94.30;;;;;;5057323;28;20543;-74
2022/06/25 01:11:21;;;;;;;5.13;4.68;;;17.40;95.50;;;;;;5075253;28;20017;-74
2022/06/25 01:13:47;;;;;;;5.57;4.70;;;17.30;94.50;;;;;;5072107;28;20102;-74
2022/06/25 01:16:13;;;;;;;6.88;5.35;;;17.40;94.00;;;;;;5055199;28;20410;-74
2022/06/25 01:18:38;;;;;;;5.40;4.90;;;17.40;94.60;;;;;;5055050;28;20144;-74
2022/06/25 01:21:04;;;;;;;7.32;4.68;;;17.30;94.40;;;;;;5055122;28;20032;-74
2022/06/25 01:23:30;;;;;;;7.15;6.10;;;17.30;96.00;;;;;;5055036;28;20032;-74
2022/06/25 01:25:56;;;;;;;5.72;5.03;;;17.30;95.00;;;;;;5054892;28;20036;-74
2022/06/25 01:28:22;;;;;;;6.55;4.95;;;17.20;96.70;;;;;;5054914;28;20017;-74
2022/06/25 01:30:48;;;;;;;5.85;4.85;;;17.20;97.00;;;;;;5054837;28;20078;-74
2022/06/25 01:33:13;;;;;;;7.68;4.90;;;17.20;97.60;;;;;;5054819;28;20040;-74
2022/06/25 01:35:39;;;;;;;7.47;5.10;;;17.10;96.90;;;;;;5036912;28;20430;-74
2022/06/25 01:38:05;;;;;;;7.07;5.20;;;17.10;97.30;;;;;;5054795;28;20071;-75
2022/06/25 01:40:31;;;;;;;7.50;4.90;;;17.00;97.20;;;;;;5036774;28;20039;-73
2022/06/25 01:43:00;;;;;;;4.90;4.38;;;17.00;98.10;;;;;;5054606;28;20486;-73
2022/06/25 01:45:35;;;;;;;4.93;4.43;;;17.00;97.80;;;;;;5054595;28;20360;-74
2022/06/25 01:48:02;;;;;;;7.47;5.18;;;17.00;98.50;;;;;;5036637;28;20055;-73
2022/06/25 01:50:29;;;;;;;4.85;4.45;;;17.00;97.70;;;;;;5054356;28;20467;-74
2022/06/25 01:52:55;;;;;;;5.78;4.63;;;17.00;96.90;;;;;;5054293;28;20042;-74
2022/06/25 01:55:22;;;;;;;5.50;5.00;;;17.00;96.30;;;;;;5054448;28;20113;-73
2022/06/25 01:57:49;;;;;;;5.70;5.10;;;17.00;97.90;;;;;;5054362;28;20025;-74
2022/06/25 02:00:27;;;;;;;5.78;5.00;;;17.00;97.80;;;;;;5036403;28;20386;-75
2022/06/25 02:02:54;;;;;;;7.43;4.97;;;16.90;99.90;;;;;;5054263;28;20032;-74
2022/06/25 02:05:56;;;;;;;6.90;5.18;;;16.80;99.90;;;;;;5054060;28;20057;-73
2022/06/25 02:08:09;;;;;;;8.82;5.50;;;16.80;99.90;;;;;;5054074;28;20028;-74
2022/06/25 02:10:34;;;;;;;5.30;4.85;;;16.80;99.90;;;;;;5053773;28;20021;-73
2022/06/25 02:13:00;;;;;;;5.60;5.05;;;16.80;99.90;;;;;;5053959;28;20079;-74
2022/06/25 02:15:26;;;;;;;6.10;4.88;;;16.80;99.50;;;;;;5070856;28;20032;-74
2022/06/25 02:17:51;;;;;;;6.72;4.53;;;16.80;98.00;;;;;;5056006;28;20111;-73
2022/06/25 02:20:17;;;;;;;6.88;5.13;;;16.90;97.30;;;;;;5073873;28;20024;-73
2022/06/25 02:22:43;;;;;;;10.07;5.10;;;17.00;98.10;;;;;;5073843;28;20079;-73
2022/06/25 02:25:09;;;;;;;5.35;4.57;;;17.00;98.70;;;;;;5073783;28;20643;-74
2022/06/25 02:27:35;;;;;;;7.53;5.25;;;17.00;98.00;;;;;;5073744;28;20052;-75
2022/06/25 02:30:01;;;;;;;5.43;4.88;;;17.00;97.70;;;;;;5073754;28;20413;-73
2022/06/25 02:32:30;;;;;;;7.88;5.03;;;17.00;98.90;;;;;;5073739;28;20066;-73
2022/06/25 02:34:56;;;;;;;6.60;5.10;;;17.00;98.60;;;;;;5073548;28;20033;-74
2022/06/25 02:37:21;;;;;;;9.32;5.63;;;16.90;99.00;;;;;;5073682;28;20031;-74
2022/06/25 02:39:47;;;;;;;5.45;4.60;;;16.90;98.90;;;;;;5073551;28;20474;-74
2022/06/25 02:42:13;;;;;;;5.32;4.63;;;16.80;99.90;;;;;;5073643;28;20021;-73
2022/06/25 02:44:38;;;;;;;7.25;5.32;;;16.80;99.70;;;;;;5073532;28;20043;-73
2022/06/25 02:47:04;;;;;;;8.30;5.30;;;16.90;99.90;;;;;;5073606;28;20032;-74
2022/06/25 02:49:30;;;;;;;5.93;4.45;;;16.80;98.80;;;;;;5073457;28;20440;-73
2022/06/25 02:51:56;;;;;;;6.40;4.82;;;16.80;98.60;;;;;;5073564;28;20013;-74
2022/06/25 02:54:22;;;;;;;6.30;5.25;;;16.90;98.30;;;;;;5055337;28;20039;-74
2022/06/25 02:59:32;;;;;;;5.05;4.63;;;17.00;98.30;;;;;;5053613;28;20403;-74
2022/06/25 03:01:58;;;;;;;6.07;5.00;;;17.00;98.30;;;;;;5035570;28;20017;-74
2022/06/25 03:04:24;;;;;;;5.30;4.80;;;17.10;96.70;;;;;;5035446;28;20453;-73
2022/06/25 03:06:51;;;;;;;7.57;5.38;;;17.20;97.20;;;;;;5053390;28;20053;-73
2022/06/25 03:09:17;;;;;;;8.00;5.30;;;17.20;97.60;;;;;;5035292;28;20099;-73
2022/06/25 03:11:43;;;;;;;5.03;4.53;;;17.20;98.20;;;;;;5053318;28;20075;-74
2022/06/25 03:14:08;;;;;;;8.10;5.03;;;17.20;98.40;;;;;;5059751;28;20035;-74
2022/06/25 03:16:34;;;;;;;5.18;4.68;;;17.20;99.40;;;;;;5073214;28;20052;-74
2022/06/25 03:19:01;;;;;;;5.50;4.95;;;17.20;99.70;;;;;;5073219;28;20024;-74
2022/06/25 03:21:27;;;;;;;5.40;4.90;;;17.20;98.60;;;;;;5056028;28;20028;-73
2022/06/25 03:23:52;;;;;;;5.70;5.18;;;17.30;99.20;;;;;;5059298;28;20421;-73
2022/06/25 03:26:18;;;;;;;5.13;4.63;;;17.40;97.40;;;;;;5059324;28;20024;-73
2022/06/25 03:28:44;;;;;;;5.60;4.63;;;17.50;97.30;;;;;;5077173;28;20034;-74
2022/06/25 03:31:10;;;;;;;6.47;4.78;;;17.60;95.70;;;;;;5059312;28;20502;-73
2022/06/25 03:33:36;;;;;;;5.20;4.70;;;17.70;94.10;;;;;;5076958;28;20077;-73
2022/06/25 03:36:02;;;;;;;5.93;4.93;;;17.80;93.20;;;;;;5077061;28;20466;-73
2022/06/25 03:38:28;;;;;;;5.25;4.75;;;17.70;91.60;;;;;;5077103;28;20092;-73
2022/06/25 03:41:32;;;;;;;5.60;4.60;;;17.80;91.40;;;;;;5076845;28;20094;-74
2022/06/25 03:43:39;;;;;;;8.10;5.13;;;18.00;90.30;;;;;;5076705;28;20020;-73
2022/06/25 03:46:06;;;;;;;6.00;4.30;;;18.30;89.10;;;;;;5076932;28;20439;-73
2022/06/25 03:48:31;;;;;;;5.15;4.15;;;18.40;86.80;;;;;;5058951;28;20367;-75
2022/06/25 03:50:57;;;;;;;5.28;4.80;;;18.60;84.70;;;;;;5058712;28;20021;-75
2022/06/25 03:53:23;;;;;;;7.97;4.75;;;18.70;81.90;;;;;;5058677;28;20060;-74
2022/06/25 03:55:49;;;;;;;4.65;4.00;;;18.90;81.80;;;;;;5072074;28;20455;-74
2022/06/25 03:58:14;;;;;;;4.22;3.83;;;19.20;82.70;;;;;;5056695;28;20376;-73
2022/06/25 04:00:40;;;;;;;5.53;4.47;;;19.50;82.10;;;;;;5056599;28;20109;-74
2022/06/25 04:03:06;;;;;;;6.22;4.00;;;19.70;77.60;;;;;;5056721;28;20020;-74
2022/06/25 04:05:31;;;;;;;4.43;4.03;;;20.00;76.50;;;;;;5038307;28;20138;-74
2022/06/25 04:07:57;;;;;;;4.03;3.72;;;20.10;75.20;;;;;;5056448;28;20021;-74
2022/06/25 04:10:23;;;;;;;4.68;4.15;;;20.10;75.40;;;;;;5056275;28;20082;-71
2022/06/25 04:12:49;;;;;;;6.43;4.53;;;20.20;75.50;;;;;;5056341;28;20032;-72
2022/06/25 04:15:15;;;;;;;5.70;4.28;;;20.30;74.80;;;;;;5072248;28;20021;-71
2022/06/25 04:17:40;;;;;;;5.32;3.92;;;20.40;74.60;;;;;;5058378;28;20116;-71
2022/06/25 04:20:07;;;;;;;8.63;4.25;;;20.40;73.80;;;;;;5076152;28;20485;-71
2022/06/25 04:22:32;;;;;;;5.82;4.35;;;20.50;73.50;;;;;;5058175;28;20089;-71
2022/06/25 04:24:58;;;;;;;5.95;3.85;;;20.50;72.10;;;;;;5075767;28;20111;-71
2022/06/25 04:30:08;;;;;;;4.95;3.97;;;20.40;71.80;;;;;;5076084;28;20054;-71
2022/06/25 04:32:34;;;;;;;4.18;3.88;;;20.50;72.00;;;;;;5075777;28;20493;-71
2022/06/25 04:35:00;;;;;;;4.50;4.10;;;20.60;70.60;;;;;;5057747;28;20036;-71
2022/06/25 04:37:26;;;;;;;4.55;4.03;;;20.60;70.00;;;;;;5075966;28;20096;-71
2022/06/25 04:39:51;;;;;;;5.55;3.63;;;20.60;69.60;;;;;;5075747;28;20528;-72
2022/06/25 04:42:17;;;;;;;4.07;3.63;;;20.60;70.00;;;;;;5075872;28;20024;-72
2022/06/25 04:44:43;;;;;;;4.90;4.10;;;20.70;70.10;;;;;;5075690;28;20025;-71
2022/06/25 04:47:09;;;;;;;4.65;3.38;;;20.60;69.60;;;;;;5075773;28;20524;-72
2022/06/25 04:49:35;;;;;;;3.83;3.53;;;20.60;68.70;;;;;;5075665;28;20103;-71
2022/06/25 04:52:01;;;;;;;5.18;3.85;;;20.60;70.40;;;;;;5057620;28;20527;-72
2022/06/25 04:54:27;;;;;;;4.80;4.05;;;20.60;72.10;;;;;;5075521;28;20115;-71
2022/06/25 04:56:52;;;;;;;4.38;3.97;;;20.60;72.80;;;;;;5043894;28;20017;-71
2022/06/25 04:59:18;;;;;;;3.75;3.35;;;20.70;71.30;;;;;;5055614;28;20457;-72
2022/06/25 05:01:45;;;;;;;4.60;4.18;;;20.80;71.50;;;;;;5055345;28;20486;-71
2022/06/25 05:04:10;;;;;;;5.10;3.92;;;20.90;71.50;;;;;;5055448;28;20021;-72
2022/06/25 05:06:36;;;;;;;4.15;3.85;;;21.00;70.80;;;;;;5055247;28;20053;-71
2022/06/25 05:09:02;;;;;;;5.20;4.30;;;21.10;70.30;;;;;;5037496;28;20025;-74
2022/06/25 05:11:28;;;;;;;5.50;4.18;;;21.20;69.10;;;;;;5055189;28;20025;-74
2022/06/25 05:13:54;;;;;;;5.57;4.25;;;21.20;68.40;;;;;;5060338;28;20028;-74
2022/06/25 05:16:19;;;;;;;10.27;4.03;;;21.30;69.80;;;;;;5075115;28;20386;-71
2022/06/25 05:18:47;;;;;;;4.32;3.80;;;21.40;68.90;;;;;;5075153;28;20025;-71
2022/06/25 05:21:14;;;;;;;4.53;4.13;;;21.40;69.20;;;;;;5074883;28;20470;-71
2022/06/25 05:23:39;;;;;;;4.88;4.47;;;21.40;67.60;;;;;;5075094;28;20032;-73
2022/06/25 05:26:05;;;;;;;3.95;3.65;;;21.50;67.90;;;;;;5074922;28;20025;-72
2022/06/25 05:28:31;;;;;;;4.30;3.90;;;21.50;67.70;;;;;;5074934;28;20066;-71
2022/06/25 05:30:56;;;;;;;4.35;3.95;;;21.60;66.90;;;;;;5074859;28;20445;-72
2022/06/25 05:33:22;;;;;;;5.82;3.90;;;21.70;66.30;;;;;;5074768;28;20394;-71
2022/06/25 05:35:48;;;;;;;6.00;4.07;;;21.70;65.90;;;;;;5056782;28;20524;-71
2022/06/25 05:38:14;;;;;;;8.20;4.00;;;21.60;66.00;;;;;;5056875;28;20475;-72
2022/06/25 05:40:40;;;;;;;4.72;4.28;;;21.70;65.50;;;;;;5056664;28;20032;-72
2022/06/25 05:43:06;;;;;;;5.10;4.18;;;21.80;65.60;;;;;;5074627;28;20394;-71
2022/06/25 05:45:32;;;;;;;4.30;3.60;;;21.70;64.90;;;;;;5073941;28;20837;-71
2022/06/25 05:47:58;;;;;;;4.65;3.22;;;21.80;64.80;;;;;;5074567;28;20016;-71
2022/06/25 05:50:24;;;;;;;5.72;4.20;;;21.80;65.40;;;;;;5056627;28;20119;-71
2022/06/25 05:52:50;;;;;;;4.40;4.10;;;22.00;65.90;;;;;;5074339;28;20056;-72
2022/06/25 05:55:15;;;;;;;3.47;3.17;;;22.30;65.80;;;;;;5073817;28;20060;-74
2022/06/25 05:57:41;;;;;;;3.95;3.63;;;22.50;65.80;;;;;;5054298;28;20070;-74
2022/06/25 06:00:08;;;;;;;4.30;3.90;;;22.60;63.30;;;;;;5054409;28;20032;-74
2022/06/25 06:02:34;;;;;;;6.53;3.63;;;22.60;63.10;;;;;;5054255;28;20025;-74
2022/06/25 06:05:00;;;;;;;6.57;4.25;;;22.60;62.20;;;;;;5036125;28;20033;-74
2022/06/25 06:07:25;;;;;;;4.18;3.78;;;22.60;62.40;;;;;;5054232;28;20029;-73
2022/06/25 06:09:51;;;;;;;4.47;3.47;;;22.70;64.20;;;;;;5054154;28;20083;-74
2022/06/25 06:12:17;;;;;;;4.13;3.38;;;22.60;62.30;;;;;;5054132;28;20055;-74
2022/06/25 06:14:42;;;;;;;3.65;3.45;;;22.50;61.80;;;;;;5066171;28;20032;-74
2022/06/25 06:17:09;;;;;;;5.40;3.42;;;22.50;62.20;;;;;;5073956;28;20021;-74
2022/06/25 06:19:35;;;;;;;7.18;4.00;;;22.60;62.80;;;;;;5055981;28;20024;-74
2022/06/25 06:22:00;;;;;;;5.05;4.15;;;22.60;62.50;;;;;;5073873;28;20024;-75
2022/06/25 06:24:26;;;;;;;3.83;3.53;;;22.60;65.00;;;;;;5073871;28;20111;-74
2022/06/25 06:26:52;;;;;;;5.68;3.33;;;22.60;64.80;;;;;;5073794;28;20436;-74
2022/06/25 06:29:18;;;;;;;3.92;3.53;;;22.50;65.40;;;;;;5055857;28;20025;-74
2022/06/25 06:31:44;;;;;;;6.20;3.53;;;22.60;65.80;;;;;;5073719;28;20016;-74
2022/06/25 06:34:10;;;;;;;5.85;3.90;;;22.60;64.40;;;;;;5073600;28;20170;-74
2022/06/25 06:36:35;;;;;;;4.22;3.47;;;22.70;63.60;;;;;;5073576;28;20074;-74
2022/06/25 06:39:01;;;;;;;3.20;2.95;;;22.80;64.00;;;;;;5073698;28;20027;-74
2022/06/25 06:41:28;;;;;;;6.03;3.60;;;23.00;65.60;;;;;;5073573;28;20031;-74
2022/06/25 06:43:54;;;;;;;5.20;3.60;;;23.30;65.60;;;;;;5073635;28;20032;-74
2022/06/25 06:46:20;;;;;;;3.70;3.40;;;23.40;62.00;;;;;;5073564;28;20153;-74
2022/06/25 06:48:46;;;;;;;3.55;2.92;;;23.70;60.60;;;;;;5073558;28;20067;-74
2022/06/25 06:51:12;;;;;;;3.78;3.47;;;24.00;58.60;;;;;;5073599;28;20032;-74
2022/06/25 06:53:37;;;;;;;3.95;3.33;;;24.20;58.10;;;;;;5073475;28;20047;-74
2022/06/25 06:56:03;;;;;;;4.47;3.70;;;24.50;57.50;;;;;;5066023;28;20013;-74
2022/06/25 06:58:29;;;;;;;5.38;2.88;;;24.80;56.30;;;;;;5053429;28;20364;-74
2022/06/25 07:00:56;;;;;;;4.00;2.97;;;24.80;56.40;;;;;;5035494;28;20494;-74
2022/06/25 07:03:22;;;;;;;4.95;3.03;;;25.10;56.50;;;;;;5053303;28;20066;-74
2022/06/25 07:05:48;;;;;;;3.72;2.67;;;25.20;55.80;;;;;;5053434;28;20125;-74
2022/06/25 07:08:13;;;;;;;3.67;2.70;;;25.40;54.40;;;;;;5053315;28;20029;-75
2022/06/25 07:10:39;;;;;;;4.75;3.20;;;25.60;53.10;;;;;;5035488;28;20025;-74
2022/06/25 07:13:04;;;;;;;4.38;3.00;;;25.70;53.20;;;;;;5035350;28;20486;-74
2022/06/25 07:15:30;;;;;;;3.47;2.95;;;25.70;52.50;;;;;;5054507;28;20020;-74
2022/06/25 07:17:56;;;;;;;7.70;3.20;;;25.70;52.20;;;;;;5073311;28;20028;-74
2022/06/25 07:20:22;;;;;;;2.88;2.67;;;25.70;53.00;;;;;;5073201;28;20033;-74
2022/06/25 07:22:47;;;;;;;4.13;2.50;;;25.80;51.70;;;;;;5073133;28;20024;-74
2022/06/25 07:25:13;;;;;;;4.70;2.65;;;25.80;50.80;;;;;;5073114;28;20389;-74
2022/06/25 07:27:39;;;;;;;3.38;3.08;;;25.80;50.30;;;;;;5073121;28;20031;-74
2022/06/25 07:30:05;;;;;;;4.97;3.13;;;25.90;49.90;;;;;;5055227;28;20033;-74
2022/06/25 07:32:31;;;;;;;8.57;3.67;;;25.90;50.10;;;;;;5073030;28;20120;-74
2022/06/25 07:34:57;;;;;;;9.85;4.65;;;25.90;49.20;;;;;;5073031;28;20119;-74
2022/06/25 07:37:23;;;;;;;4.63;2.42;;;26.20;50.30;;;;;;5073021;28;20032;-74
2022/06/25 07:39:48;;;;;;;2.90;2.70;;;26.20;49.20;;;;;;5055174;28;20033;-74
2022/06/25 07:42:14;;;;;;;3.67;2.70;;;26.30;49.20;;;;;;5071809;28;20074;-73
2022/06/25 07:44:40;;;;;;;3.30;2.83;;;26.40;50.30;;;;;;5073003;28;20028;-74
2022/06/25 07:47:05;;;;;;;2.80;2.60;;;26.60;49.40;;;;;;5055028;28;20021;-74
2022/06/25 07:51:56;;;;;;;2.55;2.42;;;26.60;48.70;;;;;;5055032;28;20025;-74
2022/06/25 07:52:17;;;;;;;2.88;2.33;;;26.70;47.90;;;;;;5072832;28;20517;-75
2022/06/25 07:54:43;;;;;;;4.15;2.60;;;26.70;48.40;;;;;;5072775;28;20029;-74
2022/06/25 07:57:08;;;;;;;3.08;2.35;;;26.80;48.00;;;;;;5038213;28;20025;-74
2022/06/25 07:59:34;;;;;;;3.42;2.15;;;26.90;46.60;;;;;;5052826;28;20118;-74
2022/06/25 08:02:00;;;;;;;3.00;2.75;;;27.00;47.20;;;;;;5052931;28;20029;-74
2022/06/25 08:04:25;;;;;;;3.13;2.55;;;27.30;47.70;;;;;;5052753;28;20036;-74
2022/06/25 08:06:51;;;;;;;6.47;3.50;;;27.30;46.10;;;;;;5052927;28;20053;-74
2022/06/25 08:09:17;;;;;;;2.67;2.47;;;27.20;46.10;;;;;;5038172;28;20470;-74
2022/06/25 08:11:42;;;;;;;3.38;1.98;;;27.50;45.60;;;;;;5056555;28;20021;-74
2022/06/25 08:14:09;;;;;;;3.30;2.45;;;27.70;44.30;;;;;;5064740;28;20056;-74
2022/06/25 08:16:35;;;;;;;4.78;3.25;;;28.00;45.00;;;;;;5058341;28;20433;-74
2022/06/25 08:19:01;;;;;;;2.30;2.10;;;28.00;43.90;;;;;;5076161;28;20025;-74
2022/06/25 08:21:26;;;;;;;5.35;2.30;;;28.40;45.00;;;;;;5076318;28;20463;-74
2022/06/25 08:23:52;;;;;;;4.13;2.40;;;28.50;43.10;;;;;;5058244;28;20020;-75
2022/06/25 08:26:18;;;;;;;3.05;2.85;;;28.30;44.20;;;;;;5076114;28;20025;-75
2022/06/25 08:28:44;;;;;;;6.07;2.65;;;28.30;45.00;;;;;;5058096;28;20413;-74
2022/06/25 08:31:11;;;;;;;3.08;2.40;;;28.40;45.30;;;;;;5058113;28;20056;-74
2022/06/25 08:33:37;;;;;;;4.30;3.17;;;28.70;45.60;;;;;;5075892;28;20436;-74
2022/06/25 08:36:03;;;;;;;3.08;2.67;;;28.80;44.50;;;;;;5058084;28;20016;-74
2022/06/25 08:38:28;;;;;;;3.05;2.15;;;28.90;44.20;;;;;;5057934;28;20024;-74
2022/06/25 08:40:58;;;;;;;3.08;1.90;;;28.50;44.40;;;;;;5075835;28;20032;-74
2022/06/25 08:43:24;;;;;;;4.30;2.42;;;28.40;44.40;;;;;;5075812;28;20467;-74
2022/06/25 08:45:51;;;;;;;2.88;2.10;;;28.50;44.20;;;;;;5057709;28;20119;-74
2022/06/25 08:48:24;;;;;;;1.80;1.60;;;28.60;43.50;;;;;;5075704;28;20044;-75
2022/06/25 08:50:51;;;;;;;2.28;2.10;;;28.40;43.50;;;;;;5075729;28;20043;-74
2022/06/25 08:53:18;;;;;;;5.03;2.67;;;28.50;43.30;;;;;;5057591;28;20044;-74
2022/06/25 08:55:45;;;;;;;2.30;2.08;;;28.70;43.20;;;;;;5070274;28;20025;-74
2022/06/25 08:58:12;;;;;;;5.53;2.55;;;28.70;41.80;;;;;;5055751;28;20394;-74
2022/06/25 09:00:45;;;;;;;5.43;2.05;;;28.80;42.00;;;;;;5055586;28;20437;-74
2022/06/25 09:03:11;;;;;;;3.22;1.90;;;28.60;40.30;;;;;;5055450;28;20070;-74
2022/06/25 09:05:43;;;;;;;5.30;1.95;;;28.50;38.90;;;;;;5055266;28;20135;-74
2022/06/25 09:08:11;;;;;;;16.48;3.00;;;28.30;38.50;;;;;;5055534;28;20506;-74
2022/06/25 09:10:38;;;;;;;2.80;1.83;;;28.50;40.90;;;;;;5055234;28;20036;-75
2022/06/25 09:13:08;;;;;;;7.10;2.80;;;28.60;40.20;;;;;;5055124;28;20060;-75
2022/06/25 09:15:45;;;;;;;2.53;2.13;;;28.60;38.60;;;;;;5055375;28;20025;-74
2022/06/25 09:18:19;;;;;;;2.25;1.80;;;28.80;39.80;;;;;;5055273;28;20394;-75
2022/06/25 09:20:56;;;;;;;2.38;2.17;;;29.00;40.30;;;;;;5054239;28;20028;-72
2022/06/25 09:23:22;;;;;;;2.30;1.90;;;29.10;38.60;;;;;;5055020;28;20025;-73
2022/06/25 09:26:03;;;;;;;3.38;1.75;;;29.00;38.30;;;;;;5054995;28;20029;-72
2022/06/25 09:28:56;;;;;;;4.05;1.80;;;29.30;38.90;;;;;;5054955;28;20067;-72
2022/06/25 09:31:38;;;;;;;2.40;1.95;;;29.50;39.10;;;;;;5050798;28;20041;-72
2022/06/25 09:34:05;;;;;;;2.08;1.98;;;29.20;39.60;;;;;;5053315;28;20037;-72
2022/06/25 09:36:31;;;;;;;1.85;1.75;;;29.00;40.00;;;;;;5054877;28;20025;-72
2022/06/25 09:38:57;;;;;;;1.73;1.63;;;28.90;39.50;;;;;;5054680;28;20025;-72
2022/06/25 09:41:24;;;;;;;3.30;2.00;;;29.00;39.80;;;;;;5054772;28;20029;-72
2022/06/25 09:43:51;;;;;;;2.15;1.73;;;28.90;39.60;;;;;;5054584;28;20024;-72
2022/06/25 09:46:17;;;;;;;2.15;2.05;;;29.00;40.40;;;;;;5036689;28;20033;-72
2022/06/25 09:48:44;;;;;;;1.80;1.70;;;29.10;38.50;;;;;;5054515;28;20062;-72
2022/06/25 09:51:09;;;;;;;1.88;1.77;;;29.20;40.20;;;;;;5054586;28;20036;-72
2022/06/25 09:53:44;;;;;;;3.58;1.88;;;29.20;40.00;;;;;;5054374;28;20399;-72
2022/06/25 09:56:12;;;;;;;3.35;2.40;;;29.30;40.70;;;;;;5063572;28;20027;-72
2022/06/25 09:58:39;;;;;;;1.70;1.60;;;29.20;38.80;;;;;;5074298;28;20401;-72
2022/06/25 10:01:05;;;;;;;2.22;1.98;;;29.20;38.80;;;;;;5074051;28;20024;-72
2022/06/25 10:03:33;;;;;;;2.17;1.90;;;29.10;40.20;;;;;;5056323;28;20024;-72
2022/06/25 10:05:59;;;;;;;3.92;1.70;;;29.20;39.60;;;;;;5073961;28;20060;-72
2022/06/25 10:08:27;;;;;;;2.72;2.53;;;29.20;39.80;;;;;;5074114;28;20100;-72
2022/06/25 10:10:54;;;;;;;2.22;1.88;;;29.30;39.90;;;;;;5056128;28;20020;-72
2022/06/25 10:13:22;;;;;;;2.28;2.00;;;29.40;38.90;;;;;;5071727;28;20087;-72
2022/06/25 10:15:48;;;;;;;2.10;1.80;;;29.50;38.80;;;;;;5054004;28;20056;-72
2022/06/25 10:18:15;;;;;;;1.65;1.55;;;29.30;40.00;;;;;;5054150;28;20021;-72
2022/06/25 10:20:42;;;;;;;2.50;2.05;;;28.90;38.90;;;;;;5053828;28;20036;-72
2022/06/25 10:23:11;;;;;;;2.65;1.83;;;28.90;39.50;;;;;;5035844;28;20021;-72
2022/06/25 10:25:38;;;;;;;2.70;2.50;;;28.90;39.20;;;;;;5053672;28;20071;-72
2022/06/25 10:28:15;;;;;;;5.70;2.10;;;29.10;39.50;;;;;;5053804;28;20382;-73
2022/06/25 10:30:47;;;;;;;1.88;1.70;;;29.40;39.70;;;;;;5053315;28;20378;-72
2022/06/25 10:33:14;;;;;;;3.80;2.15;;;29.40;38.70;;;;;;5053788;28;20356;-73
2022/06/25 10:35:41;;;;;;;1.95;1.85;;;29.50;37.90;;;;;;5053665;28;20082;-72
2022/06/25 10:38:16;;;;;;;2.45;2.20;;;29.50;38.90;;;;;;5035901;28;20021;-72
2022/06/25 10:40:59;;;;;;;2.50;1.70;;;29.60;38.60;;;;;;5053569;28;20028;-72
2022/06/25 10:43:38;;;;;;;2.00;1.90;;;29.90;37.70;;;;;;5053857;28;20386;-72
2022/06/25 10:46:31;;;;;;;1.80;1.67;;;30.10;36.70;;;;;;5053703;28;20112;-73
2022/06/25 10:49:05;;;;;;;3.67;2.20;;;29.70;37.50;;;;;;5035754;28;20028;-72
2022/06/25 10:51:30;;;;;;;4.20;1.80;;;29.50;37.70;;;;;;5035695;28;20021;-72
2022/06/25 10:53:58;;;;;;;2.22;2.03;;;29.50;38.20;;;;;;5053515;28;20041;-72
2022/06/25 10:56:23;;;;;;;2.70;2.15;;;29.40;39.60;;;;;;5064689;28;20028;-72
2022/06/25 10:58:50;;;;;;;2.95;2.50;;;29.30;39.90;;;;;;5073489;28;20063;-72
2022/06/25 11:01:27;;;;;;;4.25;2.30;;;28.90;39.70;;;;;;5055448;28;20020;-73
2022/06/25 11:04:00;;;;;;;2.30;1.80;;;28.90;39.80;;;;;;5073442;28;20425;-73
2022/06/25 11:06:34;;;;;;;2.20;2.00;;;28.90;39.10;;;;;;5073363;28;20048;-73
2022/06/25 11:09:09;;;;;;;1.70;1.60;;;28.70;39.40;;;;;;5055455;28;20035;-73
2022/06/25 11:11:36;;;;;;;2.30;1.90;;;29.00;40.00;;;;;;5073290;28;20406;-73
2022/06/25 11:14:03;;;;;;;1.85;1.75;;;29.30;39.70;;;;;;5047073;28;20048;-73
2022/06/25 11:16:29;;;;;;;3.83;1.90;;;29.20;38.90;;;;;;5053280;28;20104;-73
2022/06/25 11:18:57;;;;;;;2.20;1.95;;;29.30;38.10;;;;;;5035516;28;20052;-73
2022/06/25 11:21:37;;;;;;;2.35;2.13;;;29.20;39.70;;;;;;5053102;28;20403;-73
2022/06/25 11:24:06;;;;;;;2.60;2.40;;;29.20;39.70;;;;;;5053217;28;20021;-72
2022/06/25 11:29:23;;;;;;;3.50;2.03;;;29.10;41.20;;;;;;5053510;28;20139;-73
2022/06/25 11:31:51;;;;;;;1.90;1.80;;;29.30;38.40;;;;;;5053131;28;20031;-73
2022/06/25 11:34:19;;;;;;;2.13;1.90;;;29.50;38.60;;;;;;5053064;28;20087;-73
2022/06/25 11:36:53;;;;;;;5.47;2.17;;;29.70;39.30;;;;;;5053070;28;20100;-72
2022/06/25 11:39:19;;;;;;;1.77;1.52;;;29.70;38.10;;;;;;5035241;28;20029;-73
2022/06/25 11:41:49;;;;;;;4.38;1.70;;;29.60;37.60;;;;;;5052991;28;20096;-73
2022/06/25 11:44:15;;;;;;;1.77;1.67;;;29.40;37.50;;;;;;5056594;28;20025;-73
2022/06/25 11:46:40;;;;;;;3.30;1.92;;;29.40;37.10;;;;;;5056885;28;20032;-74
2022/06/25 11:49:06;;;;;;;3.25;2.00;;;29.30;38.10;;;;;;5056970;28;20475;-73
2022/06/25 11:51:32;;;;;;;3.95;1.85;;;29.40;37.60;;;;;;5056737;28;20577;-72
2022/06/25 11:54:04;;;;;;;2.72;1.90;;;29.30;36.90;;;;;;5038826;28;20033;-72
2022/06/25 11:56:30;;;;;;;2.45;1.85;;;29.40;37.90;;;;;;5069234;28;20104;-72
2022/06/25 11:58:56;;;;;;;2.95;1.90;;;29.40;37.70;;;;;;5076826;28;20459;-72
2022/06/25 12:01:30;;;;;;;2.80;1.85;;;29.40;37.10;;;;;;5076573;28;20024;-72
2022/06/25 12:03:56;;;;;;;4.22;2.00;;;29.60;37.30;;;;;;5076689;28;20052;-73
2022/06/25 12:06:23;;;;;;;3.05;1.85;;;29.60;36.80;;;;;;5076466;28;20053;-73
2022/06/25 12:08:50;;;;;;;2.35;1.55;;;29.40;36.40;;;;;;5076792;28;20035;-73
2022/06/25 12:11:17;;;;;;;2.72;1.63;;;28.80;36.70;;;;;;5076278;28;20025;-72
2022/06/25 12:13:43;;;;;;;5.82;2.03;;;28.70;36.50;;;;;;5052386;28;20131;-72
2022/06/25 12:16:09;;;;;;;2.10;1.90;;;29.00;37.00;;;;;;5056258;28;20052;-73
2022/06/25 12:18:36;;;;;;;2.13;1.90;;;29.30;37.70;;;;;;5056355;28;20017;-73
2022/06/25 12:21:02;;;;;;;2.50;2.30;;;29.50;37.00;;;;;;5056141;28;20028;-72
2022/06/25 12:23:28;;;;;;;2.92;2.38;;;29.90;37.80;;;;;;5038369;28;20020;-73
2022/06/25 12:25:53;;;;;;;3.72;1.90;;;30.30;38.00;;;;;;5056157;28;20029;-73
2022/06/25 12:28:36;;;;;;;2.90;2.05;;;30.30;37.30;;;;;;5056114;28;20522;-73
2022/06/25 12:31:15;;;;;;;2.45;2.25;;;30.00;37.60;;;;;;5056058;28;20025;-73
2022/06/25 12:33:51;;;;;;;2.13;2.03;;;29.90;37.00;;;;;;5055948;28;20068;-73
2022/06/25 12:36:18;;;;;;;3.28;2.00;;;29.40;36.80;;;;;;5037966;28;20017;-72
2022/06/25 12:38:43;;;;;;;4.43;1.88;;;29.40;37.30;;;;;;5055997;28;20147;-72
2022/06/25 12:41:09;;;;;;;2.58;2.30;;;29.50;36.90;;;;;;5056095;28;20477;-73
2022/06/25 12:43:45;;;;;;;4.10;1.77;;;29.80;37.00;;;;;;5055783;28;20352;-72
2022/06/25 12:46:12;;;;;;;3.13;2.00;;;30.20;37.90;;;;;;5055754;28;20382;-73
2022/06/25 12:48:38;;;;;;;2.90;2.25;;;30.40;36.50;;;;;;5055820;28;20078;-73
2022/06/25 12:51:12;;;;;;;2.20;2.10;;;30.60;36.00;;;;;;5037764;28;20033;-72
2022/06/25 12:53:39;;;;;;;2.55;2.35;;;30.40;36.90;;;;;;5055515;28;20497;-72